sensor_id;sensor_type;location;lat;lon;timestamp;temperature;humidity
20400;DHT22;10359;53.596;22.520;2023-12-28T00:00:33;0.30;1.00
20400;DHT22;10359;53.596;22.520;2023-12-28T00:10:23;0.70;1.00
20400;DHT22;10359;53.596;22.520;2023-12-28T00:19:32;0.60;1.00
20400;DHT22;10359;53.596;22.520;2023-12-28T00:22:12;0.70;1.00
20400;DHT22;10359;53.596;22.520;2023-12-28T00:28:22;0.50;1.00
20400;DHT22;10359;53.596;22.520;2023-12-28T00:34:15;0.50;1.00
20400;DHT22;10359;53.596;22.520;2023-12-28T00:40:27;0.50;1.00
20400;DHT22;10359;53.596;22.520;2023-12-28T00:46:38;0.40;1.00
20400;DHT22;10359;53.596;22.520;2023-12-28T00:49:23;0.20;1.00
20400;DHT22;10359;53.596;22.520;2023-12-28T01:05:06;0.20;1.00
20400;DHT22;10359;53.596;22.520;2023-12-28T01:11:22;0.10;1.00
20400;DHT22;10359;53.596;22.520;2023-12-28T01:17:33;0.30;1.00
20400;DHT22;10359;53.596;22.520;2023-12-28T01:20:38;0.00;1.00
20400;DHT22;10359;53.596;22.520;2023-12-28T01:36:15;0.50;1.00
20400;DHT22;10359;53.596;22.520;2023-12-28T01:39:03;0.50;1.00
20400;DHT22;10359;53.596;22.520;2023-12-28T01:41:46;0.40;1.00
20400;DHT22;10359;53.596;22.520;2023-12-28T01:44:22;0.70;1.00
20400;DHT22;10359;53.596;22.520;2023-12-28T01:57:15;1.00;1.00
20400;DHT22;10359;53.596;22.520;2023-12-28T02:00:09;0.90;1.00
20400;DHT22;10359;53.596;22.520;2023-12-28T02:06:23;1.10;1.00
20400;DHT22;10359;53.596;22.520;2023-12-28T02:16:15;1.20;1.00
20400;DHT22;10359;53.596;22.520;2023-12-28T02:33:29;1.40;1.00
20400;DHT22;10359;53.596;22.520;2023-12-28T03:07:22;1.70;1.00
20400;DHT22;10359;53.596;22.520;2023-12-28T03:24:04;1.50;1.00
20400;DHT22;10359;53.596;22.520;2023-12-28T03:33:53;1.50;1.00
20400;DHT22;10359;53.596;22.520;2023-12-28T03:46:54;1.80;1.00
20400;DHT22;10359;53.596;22.520;2023-12-28T04:03:43;1.70;1.00
20400;DHT22;10359;53.596;22.520;2023-12-28T04:10:00;1.90;1.00
20400;DHT22;10359;53.596;22.520;2023-12-28T04:33:55;1.40;1.00
20400;DHT22;10359;53.596;22.520;2023-12-28T04:37:05;1.30;1.00
20400;DHT22;10359;53.596;22.520;2023-12-28T04:46:46;0.80;1.00
20400;DHT22;10359;53.596;22.520;2023-12-28T04:56:35;0.40;1.00
20400;DHT22;10359;53.596;22.520;2023-12-28T05:06:21;0.10;1.00
20400;DHT22;10359;53.596;22.520;2023-12-28T05:15:58;-0.10;1.00
20400;DHT22;10359;53.596;22.520;2023-12-28T05:29:08;0.00;1.00
20400;DHT22;10359;53.596;22.520;2023-12-28T05:31:46;0.10;1.00
20400;DHT22;10359;53.596;22.520;2023-12-28T05:41:37;0.00;1.00
20400;DHT22;10359;53.596;22.520;2023-12-28T05:54:54;-0.10;11.00
20400;DHT22;10359;53.596;22.520;2023-12-28T06:04:29;-0.10;99.90
20400;DHT22;10359;53.596;22.520;2023-12-28T06:14:05;0.10;99.90
20400;DHT22;10359;53.596;22.520;2023-12-28T06:30:48;0.30;99.90
20400;DHT22;10359;53.596;22.520;2023-12-28T06:44:03;0.90;11.90
20400;DHT22;10359;53.596;22.520;2023-12-28T06:53:39;0.60;11.40
20400;DHT22;10359;53.596;22.520;2023-12-28T06:59:49;0.50;1.00
20400;DHT22;10359;53.596;22.520;2023-12-28T07:09:08;0.70;1.00
20400;DHT22;10359;53.596;22.520;2023-12-28T07:15:19;0.90;1.00
20400;DHT22;10359;53.596;22.520;2023-12-28T07:24:55;1.10;1.00
20400;DHT22;10359;53.596;22.520;2023-12-28T07:31:05;1.10;1.00
20400;DHT22;10359;53.596;22.520;2023-12-28T07:40:14;1.30;1.00
20400;DHT22;10359;53.596;22.520;2023-12-28T07:46:23;1.40;1.00
20400;DHT22;10359;53.596;22.520;2023-12-28T07:59:16;1.70;1.00
20400;DHT22;10359;53.596;22.520;2023-12-28T08:01:56;1.70;1.00
20400;DHT22;10359;53.596;22.520;2023-12-28T08:11:31;1.80;1.00
20400;DHT22;10359;53.596;22.520;2023-12-28T08:20:36;2.10;1.00
20400;DHT22;10359;53.596;22.520;2023-12-28T08:26:28;2.10;1.00
20400;DHT22;10359;53.596;22.520;2023-12-28T08:28:58;2.20;1.00
20400;DHT22;10359;53.596;22.520;2023-12-28T08:38:21;2.10;1.00
20400;DHT22;10359;53.596;22.520;2023-12-28T08:44:32;2.40;1.00
20400;DHT22;10359;53.596;22.520;2023-12-28T08:50:43;2.40;1.00
20400;DHT22;10359;53.596;22.520;2023-12-28T08:53:20;2.60;1.00
20400;DHT22;10359;53.596;22.520;2023-12-28T09:06:07;2.90;1.00
20400;DHT22;10359;53.596;22.520;2023-12-28T09:18:35;3.00;1.00
20400;DHT22;10359;53.596;22.520;2023-12-28T09:24:46;3.10;1.00
20400;DHT22;10359;53.596;22.520;2023-12-28T09:27:23;3.20;1.00
20400;DHT22;10359;53.596;22.520;2023-12-28T09:30:08;3.30;1.00
20400;DHT22;10359;53.596;22.520;2023-12-28T09:53:43;3.60;1.00
20400;DHT22;10359;53.596;22.520;2023-12-28T10:03:34;3.50;1.00
20400;DHT22;10359;53.596;22.520;2023-12-28T10:09:47;3.60;1.00
20400;DHT22;10359;53.596;22.520;2023-12-28T10:19:22;3.50;1.00
20400;DHT22;10359;53.596;22.520;2023-12-28T10:37:07;3.60;1.00
20400;DHT22;10359;53.596;22.520;2023-12-28T10:39:39;3.70;1.00
20400;DHT22;10359;53.596;22.520;2023-12-28T10:42:13;3.70;1.00
20400;DHT22;10359;53.596;22.520;2023-12-28T10:44:47;3.70;1.00
20400;DHT22;10359;53.596;22.520;2023-12-28T10:47:20;3.80;1.00
20400;DHT22;10359;53.596;22.520;2023-12-28T10:49:50;3.80;1.00
20400;DHT22;10359;53.596;22.520;2023-12-28T10:52:27;3.80;1.00
20400;DHT22;10359;53.596;22.520;2023-12-28T10:55:16;4.00;1.00
20400;DHT22;10359;53.596;22.520;2023-12-28T10:57:57;4.00;1.00
20400;DHT22;10359;53.596;22.520;2023-12-28T11:00:32;3.90;1.00
20400;DHT22;10359;53.596;22.520;2023-12-28T11:03:06;4.10;1.00
20400;DHT22;10359;53.596;22.520;2023-12-28T11:05:43;4.10;1.00
20400;DHT22;10359;53.596;22.520;2023-12-28T11:08:17;4.30;1.00
20400;DHT22;10359;53.596;22.520;2023-12-28T11:10:50;4.20;1.00
20400;DHT22;10359;53.596;22.520;2023-12-28T11:13:21;4.20;1.00
20400;DHT22;10359;53.596;22.520;2023-12-28T11:15:52;4.20;1.00
20400;DHT22;10359;53.596;22.520;2023-12-28T11:18:22;4.20;1.00
20400;DHT22;10359;53.596;22.520;2023-12-28T11:20:53;4.20;1.00
20400;DHT22;10359;53.596;22.520;2023-12-28T11:23:24;4.20;1.00
20400;DHT22;10359;53.596;22.520;2023-12-28T11:25:55;4.20;1.00
20400;DHT22;10359;53.596;22.520;2023-12-28T11:28:25;4.10;1.00
20400;DHT22;10359;53.596;22.520;2023-12-28T11:30:54;4.10;1.00
20400;DHT22;10359;53.596;22.520;2023-12-28T11:33:31;4.20;1.00
20400;DHT22;10359;53.596;22.520;2023-12-28T11:36:00;4.30;1.00
20400;DHT22;10359;53.596;22.520;2023-12-28T11:38:31;4.20;1.00
20400;DHT22;10359;53.596;22.520;2023-12-28T11:41:04;4.20;1.00
20400;DHT22;10359;53.596;22.520;2023-12-28T11:43:35;4.20;1.00
20400;DHT22;10359;53.596;22.520;2023-12-28T11:46:08;4.30;1.00
20400;DHT22;10359;53.596;22.520;2023-12-28T11:48:37;4.30;1.00
20400;DHT22;10359;53.596;22.520;2023-12-28T11:51:07;4.40;1.00
20400;DHT22;10359;53.596;22.520;2023-12-28T11:53:40;4.40;1.00
20400;DHT22;10359;53.596;22.520;2023-12-28T11:56:10;4.50;1.00
20400;DHT22;10359;53.596;22.520;2023-12-28T11:58:40;4.50;1.00
20400;DHT22;10359;53.596;22.520;2023-12-28T12:01:12;4.50;1.00
20400;DHT22;10359;53.596;22.520;2023-12-28T12:03:44;4.50;1.00
20400;DHT22;10359;53.596;22.520;2023-12-28T12:06:13;4.60;1.00
20400;DHT22;10359;53.596;22.520;2023-12-28T12:08:47;4.70;1.00
20400;DHT22;10359;53.596;22.520;2023-12-28T12:11:17;4.60;1.00
20400;DHT22;10359;53.596;22.520;2023-12-28T12:13:48;4.50;1.00
20400;DHT22;10359;53.596;22.520;2023-12-28T12:16:19;4.60;1.00
20400;DHT22;10359;53.596;22.520;2023-12-28T12:18:49;4.50;1.00
20400;DHT22;10359;53.596;22.520;2023-12-28T12:21:18;4.50;1.00
20400;DHT22;10359;53.596;22.520;2023-12-28T12:23:51;4.70;1.00
20400;DHT22;10359;53.596;22.520;2023-12-28T12:26:20;4.50;1.00
20400;DHT22;10359;53.596;22.520;2023-12-28T12:28:49;4.50;1.00
20400;DHT22;10359;53.596;22.520;2023-12-28T12:31:19;4.50;1.00
20400;DHT22;10359;53.596;22.520;2023-12-28T12:33:50;4.50;1.00
20400;DHT22;10359;53.596;22.520;2023-12-28T12:36:19;4.50;1.00
20400;DHT22;10359;53.596;22.520;2023-12-28T12:38:51;4.50;1.00
20400;DHT22;10359;53.596;22.520;2023-12-28T12:41:21;4.50;1.00
20400;DHT22;10359;53.596;22.520;2023-12-28T12:43:51;4.60;1.00
20400;DHT22;10359;53.596;22.520;2023-12-28T12:46:24;4.60;1.00
20400;DHT22;10359;53.596;22.520;2023-12-28T12:48:57;4.70;1.00
20400;DHT22;10359;53.596;22.520;2023-12-28T12:51:27;4.60;1.00
20400;DHT22;10359;53.596;22.520;2023-12-28T12:53:59;4.70;1.00
20400;DHT22;10359;53.596;22.520;2023-12-28T12:56:29;4.70;1.00
20400;DHT22;10359;53.596;22.520;2023-12-28T12:58:59;4.80;1.00
20400;DHT22;10359;53.596;22.520;2023-12-28T13:01:28;4.80;1.00
20400;DHT22;10359;53.596;22.520;2023-12-28T13:03:58;4.80;1.00
20400;DHT22;10359;53.596;22.520;2023-12-28T13:06:27;4.70;1.00
20400;DHT22;10359;53.596;22.520;2023-12-28T13:08:58;4.70;1.00
20400;DHT22;10359;53.596;22.520;2023-12-28T13:11:28;4.80;1.00
20400;DHT22;10359;53.596;22.520;2023-12-28T13:13:57;4.70;1.00
20400;DHT22;10359;53.596;22.520;2023-12-28T13:16:27;4.90;1.00
20400;DHT22;10359;53.596;22.520;2023-12-28T13:18:59;4.90;1.00
20400;DHT22;10359;53.596;22.520;2023-12-28T13:21:29;4.80;1.00
20400;DHT22;10359;53.596;22.520;2023-12-28T13:24:00;4.80;1.00
20400;DHT22;10359;53.596;22.520;2023-12-28T13:26:31;4.80;1.00
20400;DHT22;10359;53.596;22.520;2023-12-28T13:29:00;4.80;1.00
20400;DHT22;10359;53.596;22.520;2023-12-28T13:31:33;4.90;1.00
20400;DHT22;10359;53.596;22.520;2023-12-28T13:34:23;4.80;1.00
20400;DHT22;10359;53.596;22.520;2023-12-28T13:37:12;4.80;1.00
20400;DHT22;10359;53.596;22.520;2023-12-28T13:40:05;4.80;1.00
20400;DHT22;10359;53.596;22.520;2023-12-28T13:42:55;4.80;1.00
20400;DHT22;10359;53.596;22.520;2023-12-28T13:45:45;4.80;1.00
20400;DHT22;10359;53.596;22.520;2023-12-28T13:48:34;4.80;1.00
20400;DHT22;10359;53.596;22.520;2023-12-28T13:51:30;4.90;1.00
20400;DHT22;10359;53.596;22.520;2023-12-28T13:54:27;4.80;1.00
20400;DHT22;10359;53.596;22.520;2023-12-28T13:57:20;4.80;1.00
20400;DHT22;10359;53.596;22.520;2023-12-28T14:00:10;4.90;1.00
20400;DHT22;10359;53.596;22.520;2023-12-28T14:03:00;4.80;1.00
20400;DHT22;10359;53.596;22.520;2023-12-28T14:05:53;4.80;1.00
20400;DHT22;10359;53.596;22.520;2023-12-28T14:08:46;4.90;1.00
20400;DHT22;10359;53.596;22.520;2023-12-28T14:11:38;4.90;1.00
20400;DHT22;10359;53.596;22.520;2023-12-28T14:14:34;4.90;1.00
20400;DHT22;10359;53.596;22.520;2023-12-28T14:17:25;4.90;1.00
20400;DHT22;10359;53.596;22.520;2023-12-28T14:20:15;4.90;1.00
20400;DHT22;10359;53.596;22.520;2023-12-28T14:23:06;4.90;1.00
20400;DHT22;10359;53.596;22.520;2023-12-28T14:25:57;5.00;1.00
20400;DHT22;10359;53.596;22.520;2023-12-28T14:28:50;5.00;1.00
20400;DHT22;10359;53.596;22.520;2023-12-28T14:31:44;5.00;1.00
20400;DHT22;10359;53.596;22.520;2023-12-28T14:34:35;4.90;1.00
20400;DHT22;10359;53.596;22.520;2023-12-28T14:37:25;5.00;1.00
20400;DHT22;10359;53.596;22.520;2023-12-28T14:40:15;5.00;1.00
20400;DHT22;10359;53.596;22.520;2023-12-28T14:43:05;5.00;1.00
20400;DHT22;10359;53.596;22.520;2023-12-28T14:45:56;5.00;1.00
20400;DHT22;10359;53.596;22.520;2023-12-28T14:48:48;5.10;1.00
20400;DHT22;10359;53.596;22.520;2023-12-28T14:51:38;5.10;1.00
20400;DHT22;10359;53.596;22.520;2023-12-28T14:54:34;5.10;1.00
20400;DHT22;10359;53.596;22.520;2023-12-28T14:57:24;5.10;1.00
20400;DHT22;10359;53.596;22.520;2023-12-28T15:00:15;5.20;1.00
20400;DHT22;10359;53.596;22.520;2023-12-28T15:03:08;5.20;1.00
20400;DHT22;10359;53.596;22.520;2023-12-28T15:06:00;5.20;1.00
20400;DHT22;10359;53.596;22.520;2023-12-28T15:08:50;5.20;1.00
20400;DHT22;10359;53.596;22.520;2023-12-28T15:11:40;5.30;1.00
20400;DHT22;10359;53.596;22.520;2023-12-28T15:14:36;5.20;1.00
20400;DHT22;10359;53.596;22.520;2023-12-28T15:17:26;5.00;1.00
20400;DHT22;10359;53.596;22.520;2023-12-28T15:20:17;5.00;1.00
20400;DHT22;10359;53.596;22.520;2023-12-28T15:23:10;5.10;1.00
20400;DHT22;10359;53.596;22.520;2023-12-28T15:26:00;5.10;1.00
20400;DHT22;10359;53.596;22.520;2023-12-28T15:28:50;5.10;1.00
20400;DHT22;10359;53.596;22.520;2023-12-28T15:31:39;5.20;1.00
20400;DHT22;10359;53.596;22.520;2023-12-28T15:34:30;5.30;1.00
20400;DHT22;10359;53.596;22.520;2023-12-28T15:37:20;5.30;1.00
20400;DHT22;10359;53.596;22.520;2023-12-28T15:40:12;5.20;1.00
20400;DHT22;10359;53.596;22.520;2023-12-28T15:43:01;5.00;1.00
20400;DHT22;10359;53.596;22.520;2023-12-28T15:45:51;4.90;1.00
20400;DHT22;10359;53.596;22.520;2023-12-28T15:48:41;4.80;1.00
20400;DHT22;10359;53.596;22.520;2023-12-28T15:51:31;4.70;1.00
20400;DHT22;10359;53.596;22.520;2023-12-28T15:54:21;4.60;1.00
20400;DHT22;10359;53.596;22.520;2023-12-28T15:57:15;4.50;1.00
20400;DHT22;10359;53.596;22.520;2023-12-28T16:00:06;4.40;1.00
20400;DHT22;10359;53.596;22.520;2023-12-28T16:02:59;4.20;1.00
20400;DHT22;10359;53.596;22.520;2023-12-28T16:05:49;4.00;1.00
20400;DHT22;10359;53.596;22.520;2023-12-28T16:08:39;3.90;1.00
20400;DHT22;10359;53.596;22.520;2023-12-28T16:11:29;3.80;1.00
20400;DHT22;10359;53.596;22.520;2023-12-28T16:14:20;3.90;1.00
20400;DHT22;10359;53.596;22.520;2023-12-28T16:17:11;4.00;1.00
20400;DHT22;10359;53.596;22.520;2023-12-28T16:20:01;4.00;1.00
20400;DHT22;10359;53.596;22.520;2023-12-28T16:22:52;3.90;1.00
20400;DHT22;10359;53.596;22.520;2023-12-28T16:25:42;3.70;1.00
20400;DHT22;10359;53.596;22.520;2023-12-28T16:28:32;3.60;1.00
20400;DHT22;10359;53.596;22.520;2023-12-28T16:31:26;3.50;13.10
20400;DHT22;10359;53.596;22.520;2023-12-28T16:34:16;3.50;13.20
20400;DHT22;10359;53.596;22.520;2023-12-28T16:37:06;3.40;17.40
20400;DHT22;10359;53.596;22.520;2023-12-28T16:39:55;3.50;99.90
20400;DHT22;10359;53.596;22.520;2023-12-28T16:42:45;3.40;99.90
20400;DHT22;10359;53.596;22.520;2023-12-28T16:45:35;3.40;99.90
20400;DHT22;10359;53.596;22.520;2023-12-28T16:48:27;3.30;99.90
20400;DHT22;10359;53.596;22.520;2023-12-28T16:51:17;3.30;99.90
20400;DHT22;10359;53.596;22.520;2023-12-28T16:54:18;3.30;99.90
20400;DHT22;10359;53.596;22.520;2023-12-28T16:57:10;3.30;99.90
20400;DHT22;10359;53.596;22.520;2023-12-28T17:00:00;3.20;99.90
20400;DHT22;10359;53.596;22.520;2023-12-28T17:02:58;3.20;99.90
20400;DHT22;10359;53.596;22.520;2023-12-28T17:05:50;3.30;99.90
20400;DHT22;10359;53.596;22.520;2023-12-28T17:08:40;3.20;99.90
20400;DHT22;10359;53.596;22.520;2023-12-28T17:11:31;3.20;99.90
20400;DHT22;10359;53.596;22.520;2023-12-28T17:14:22;3.30;99.90
20400;DHT22;10359;53.596;22.520;2023-12-28T17:16:52;3.30;99.90
20400;DHT22;10359;53.596;22.520;2023-12-28T17:19:22;2.90;99.90
20400;DHT22;10359;53.596;22.520;2023-12-28T17:21:54;3.30;99.90
20400;DHT22;10359;53.596;22.520;2023-12-28T17:24:26;3.30;99.90
20400;DHT22;10359;53.596;22.520;2023-12-28T17:27:01;3.00;99.90
20400;DHT22;10359;53.596;22.520;2023-12-28T17:29:32;3.30;99.90
20400;DHT22;10359;53.596;22.520;2023-12-28T17:32:03;3.30;99.90
20400;DHT22;10359;53.596;22.520;2023-12-28T17:34:35;3.40;99.90
20400;DHT22;10359;53.596;22.520;2023-12-28T17:37:08;3.40;99.90
20400;DHT22;10359;53.596;22.520;2023-12-28T17:39:38;3.40;99.90
20400;DHT22;10359;53.596;22.520;2023-12-28T17:42:10;3.40;99.90
20400;DHT22;10359;53.596;22.520;2023-12-28T17:44:42;3.30;99.90
20400;DHT22;10359;53.596;22.520;2023-12-28T17:47:20;3.30;99.90
20400;DHT22;10359;53.596;22.520;2023-12-28T17:49:50;3.30;99.90
20400;DHT22;10359;53.596;22.520;2023-12-28T17:52:23;3.30;99.90
20400;DHT22;10359;53.596;22.520;2023-12-28T17:54:53;3.20;99.90
20400;DHT22;10359;53.596;22.520;2023-12-28T17:57:23;3.20;99.90
20400;DHT22;10359;53.596;22.520;2023-12-28T17:59:52;3.20;99.90
20400;DHT22;10359;53.596;22.520;2023-12-28T18:02:22;3.20;99.90
20400;DHT22;10359;53.596;22.520;2023-12-28T18:04:51;3.10;99.90
20400;DHT22;10359;53.596;22.520;2023-12-28T18:07:23;3.10;99.90
20400;DHT22;10359;53.596;22.520;2023-12-28T18:09:52;3.20;99.90
20400;DHT22;10359;53.596;22.520;2023-12-28T18:12:22;2.90;99.90
20400;DHT22;10359;53.596;22.520;2023-12-28T18:14:51;3.10;99.90
20400;DHT22;10359;53.596;22.520;2023-12-28T18:17:21;3.20;99.90
20400;DHT22;10359;53.596;22.520;2023-12-28T18:19:51;3.20;99.90
20400;DHT22;10359;53.596;22.520;2023-12-28T18:22:22;3.30;99.90
20400;DHT22;10359;53.596;22.520;2023-12-28T18:24:51;3.40;99.90
20400;DHT22;10359;53.596;22.520;2023-12-28T18:27:21;3.60;99.90
20400;DHT22;10359;53.596;22.520;2023-12-28T18:29:51;3.70;99.90
20400;DHT22;10359;53.596;22.520;2023-12-28T18:32:21;3.80;99.90
20400;DHT22;10359;53.596;22.520;2023-12-28T18:34:50;3.80;99.90
20400;DHT22;10359;53.596;22.520;2023-12-28T18:37:22;4.00;99.90
20400;DHT22;10359;53.596;22.520;2023-12-28T18:39:52;4.10;99.90
20400;DHT22;10359;53.596;22.520;2023-12-28T18:42:22;4.20;99.90
20400;DHT22;10359;53.596;22.520;2023-12-28T18:44:52;4.40;99.90
20400;DHT22;10359;53.596;22.520;2023-12-28T18:47:22;4.40;34.40
20400;DHT22;10359;53.596;22.520;2023-12-28T18:49:51;4.50;14.00
20400;DHT22;10359;53.596;22.520;2023-12-28T18:52:23;4.60;1.00
20400;DHT22;10359;53.596;22.520;2023-12-28T18:54:56;4.70;1.00
20400;DHT22;10359;53.596;22.520;2023-12-28T18:57:36;4.70;1.00
20400;DHT22;10359;53.596;22.520;2023-12-28T19:00:13;4.70;1.00
20400;DHT22;10359;53.596;22.520;2023-12-28T19:02:44;4.70;1.00
20400;DHT22;10359;53.596;22.520;2023-12-28T19:05:15;4.70;1.00
20400;DHT22;10359;53.596;22.520;2023-12-28T19:07:49;4.70;1.00
20400;DHT22;10359;53.596;22.520;2023-12-28T19:10:22;4.70;1.00
20400;DHT22;10359;53.596;22.520;2023-12-28T19:12:53;4.70;1.00
20400;DHT22;10359;53.596;22.520;2023-12-28T19:15:23;4.70;1.00
20400;DHT22;10359;53.596;22.520;2023-12-28T19:17:55;4.80;1.00
20400;DHT22;10359;53.596;22.520;2023-12-28T19:20:26;4.90;1.00
20400;DHT22;10359;53.596;22.520;2023-12-28T19:22:58;4.90;1.00
20400;DHT22;10359;53.596;22.520;2023-12-28T19:25:30;4.90;1.00
20400;DHT22;10359;53.596;22.520;2023-12-28T19:28:03;4.90;1.00
20400;DHT22;10359;53.596;22.520;2023-12-28T19:30:35;4.80;1.00
20400;DHT22;10359;53.596;22.520;2023-12-28T19:33:07;4.70;1.00
20400;DHT22;10359;53.596;22.520;2023-12-28T19:35:39;4.70;1.00
20400;DHT22;10359;53.596;22.520;2023-12-28T19:38:12;4.60;1.00
20400;DHT22;10359;53.596;22.520;2023-12-28T19:40:43;4.60;1.00
20400;DHT22;10359;53.596;22.520;2023-12-28T19:43:15;4.60;1.00
20400;DHT22;10359;53.596;22.520;2023-12-28T19:45:46;4.60;1.00
20400;DHT22;10359;53.596;22.520;2023-12-28T19:48:18;4.70;1.00
20400;DHT22;10359;53.596;22.520;2023-12-28T19:50:50;4.80;1.00
20400;DHT22;10359;53.596;22.520;2023-12-28T19:53:22;4.90;1.00
20400;DHT22;10359;53.596;22.520;2023-12-28T19:55:53;5.00;1.00
20400;DHT22;10359;53.596;22.520;2023-12-28T19:58:23;5.00;1.00
20400;DHT22;10359;53.596;22.520;2023-12-28T20:00:56;5.10;1.00
20400;DHT22;10359;53.596;22.520;2023-12-28T20:03:28;5.20;1.00
20400;DHT22;10359;53.596;22.520;2023-12-28T20:06:03;5.20;1.00
20400;DHT22;10359;53.596;22.520;2023-12-28T20:08:40;5.10;1.00
20400;DHT22;10359;53.596;22.520;2023-12-28T20:11:11;5.10;1.00
20400;DHT22;10359;53.596;22.520;2023-12-28T20:13:42;5.10;1.00
20400;DHT22;10359;53.596;22.520;2023-12-28T20:16:12;5.00;1.00
20400;DHT22;10359;53.596;22.520;2023-12-28T20:18:42;5.00;1.00
20400;DHT22;10359;53.596;22.520;2023-12-28T20:21:16;4.80;1.00
20400;DHT22;10359;53.596;22.520;2023-12-28T20:23:48;4.80;1.00
20400;DHT22;10359;53.596;22.520;2023-12-28T20:26:22;4.70;1.00
20400;DHT22;10359;53.596;22.520;2023-12-28T20:28:53;4.70;1.00
20400;DHT22;10359;53.596;22.520;2023-12-28T20:31:22;4.70;1.00
20400;DHT22;10359;53.596;22.520;2023-12-28T20:33:53;4.70;1.00
20400;DHT22;10359;53.596;22.520;2023-12-28T20:36:24;4.60;1.00
20400;DHT22;10359;53.596;22.520;2023-12-28T20:38:57;4.60;1.00
20400;DHT22;10359;53.596;22.520;2023-12-28T20:41:29;4.60;1.00
20400;DHT22;10359;53.596;22.520;2023-12-28T20:44:00;4.60;1.00
20400;DHT22;10359;53.596;22.520;2023-12-28T20:46:32;4.50;1.00
20400;DHT22;10359;53.596;22.520;2023-12-28T20:49:03;4.50;1.00
20400;DHT22;10359;53.596;22.520;2023-12-28T20:51:34;4.50;1.00
20400;DHT22;10359;53.596;22.520;2023-12-28T20:54:10;4.50;1.00
20400;DHT22;10359;53.596;22.520;2023-12-28T20:56:41;4.60;1.00
20400;DHT22;10359;53.596;22.520;2023-12-28T20:59:14;4.50;1.00
20400;DHT22;10359;53.596;22.520;2023-12-28T21:01:44;4.50;1.00
20400;DHT22;10359;53.596;22.520;2023-12-28T21:04:15;4.50;1.00
20400;DHT22;10359;53.596;22.520;2023-12-28T21:06:45;4.50;1.00
20400;DHT22;10359;53.596;22.520;2023-12-28T21:09:16;4.50;1.00
20400;DHT22;10359;53.596;22.520;2023-12-28T21:11:46;4.50;1.00
20400;DHT22;10359;53.596;22.520;2023-12-28T21:14:16;4.50;1.00
20400;DHT22;10359;53.596;22.520;2023-12-28T21:16:46;4.50;1.00
20400;DHT22;10359;53.596;22.520;2023-12-28T21:19:16;4.50;1.00
20400;DHT22;10359;53.596;22.520;2023-12-28T21:21:46;4.40;1.00
20400;DHT22;10359;53.596;22.520;2023-12-28T21:24:17;4.40;1.00
20400;DHT22;10359;53.596;22.520;2023-12-28T21:26:46;4.40;1.00
20400;DHT22;10359;53.596;22.520;2023-12-28T21:29:16;4.40;1.00
20400;DHT22;10359;53.596;22.520;2023-12-28T21:31:46;4.50;1.00
20400;DHT22;10359;53.596;22.520;2023-12-28T21:34:15;4.50;1.00
20400;DHT22;10359;53.596;22.520;2023-12-28T21:36:45;4.60;1.00
20400;DHT22;10359;53.596;22.520;2023-12-28T21:39:19;4.60;1.00
20400;DHT22;10359;53.596;22.520;2023-12-28T21:41:48;4.70;1.00
20400;DHT22;10359;53.596;22.520;2023-12-28T21:44:18;4.70;1.00
20400;DHT22;10359;53.596;22.520;2023-12-28T21:46:47;4.70;1.00
20400;DHT22;10359;53.596;22.520;2023-12-28T21:49:16;4.80;1.00
20400;DHT22;10359;53.596;22.520;2023-12-28T21:51:47;4.80;1.00
20400;DHT22;10359;53.596;22.520;2023-12-28T21:54:19;4.90;1.00
20400;DHT22;10359;53.596;22.520;2023-12-28T21:56:49;5.00;1.00
20400;DHT22;10359;53.596;22.520;2023-12-28T21:59:19;5.10;1.00
20400;DHT22;10359;53.596;22.520;2023-12-28T22:01:52;5.20;1.00
20400;DHT22;10359;53.596;22.520;2023-12-28T22:04:22;5.30;1.00
20400;DHT22;10359;53.596;22.520;2023-12-28T22:06:51;5.50;1.00
20400;DHT22;10359;53.596;22.520;2023-12-28T22:09:22;5.60;1.00
20400;DHT22;10359;53.596;22.520;2023-12-28T22:11:52;5.70;1.00
20400;DHT22;10359;53.596;22.520;2023-12-28T22:14:21;5.70;1.00
20400;DHT22;10359;53.596;22.520;2023-12-28T22:16:51;5.80;1.00
20400;DHT22;10359;53.596;22.520;2023-12-28T22:19:21;5.90;1.00
20400;DHT22;10359;53.596;22.520;2023-12-28T22:21:51;6.00;1.00
20400;DHT22;10359;53.596;22.520;2023-12-28T22:24:22;6.10;1.00
20400;DHT22;10359;53.596;22.520;2023-12-28T22:26:52;6.10;1.00
20400;DHT22;10359;53.596;22.520;2023-12-28T22:29:22;6.20;1.00
20400;DHT22;10359;53.596;22.520;2023-12-28T22:31:51;6.20;1.00
20400;DHT22;10359;53.596;22.520;2023-12-28T22:34:21;6.20;1.00
20400;DHT22;10359;53.596;22.520;2023-12-28T22:36:51;6.30;1.00
20400;DHT22;10359;53.596;22.520;2023-12-28T22:39:23;6.30;1.00
20400;DHT22;10359;53.596;22.520;2023-12-28T22:41:52;6.30;1.00
20400;DHT22;10359;53.596;22.520;2023-12-28T22:44:22;6.40;1.00
20400;DHT22;10359;53.596;22.520;2023-12-28T22:46:51;6.40;1.00
20400;DHT22;10359;53.596;22.520;2023-12-28T22:49:21;6.40;1.00
20400;DHT22;10359;53.596;22.520;2023-12-28T22:51:51;6.40;1.00
20400;DHT22;10359;53.596;22.520;2023-12-28T22:54:22;6.40;1.00
20400;DHT22;10359;53.596;22.520;2023-12-28T22:56:52;6.40;1.00
20400;DHT22;10359;53.596;22.520;2023-12-28T22:59:21;6.40;1.00
20400;DHT22;10359;53.596;22.520;2023-12-28T23:01:51;6.40;1.00
20400;DHT22;10359;53.596;22.520;2023-12-28T23:04:21;6.40;1.00
20400;DHT22;10359;53.596;22.520;2023-12-28T23:06:51;6.40;1.00
20400;DHT22;10359;53.596;22.520;2023-12-28T23:09:22;6.40;1.00
20400;DHT22;10359;53.596;22.520;2023-12-28T23:11:52;6.40;1.00
20400;DHT22;10359;53.596;22.520;2023-12-28T23:14:23;6.40;1.00
20400;DHT22;10359;53.596;22.520;2023-12-28T23:16:52;6.40;1.00
20400;DHT22;10359;53.596;22.520;2023-12-28T23:19:23;6.40;1.00
20400;DHT22;10359;53.596;22.520;2023-12-28T23:22:00;6.40;1.00
20400;DHT22;10359;53.596;22.520;2023-12-28T23:24:32;6.40;1.00
20400;DHT22;10359;53.596;22.520;2023-12-28T23:27:02;6.30;1.00
20400;DHT22;10359;53.596;22.520;2023-12-28T23:29:32;6.30;1.00
20400;DHT22;10359;53.596;22.520;2023-12-28T23:32:02;6.40;1.00
20400;DHT22;10359;53.596;22.520;2023-12-28T23:34:31;6.30;1.00
20400;DHT22;10359;53.596;22.520;2023-12-28T23:37:02;6.30;1.00
20400;DHT22;10359;53.596;22.520;2023-12-28T23:39:35;6.40;1.00
20400;DHT22;10359;53.596;22.520;2023-12-28T23:42:05;6.40;1.00
20400;DHT22;10359;53.596;22.520;2023-12-28T23:44:38;6.40;1.00
20400;DHT22;10359;53.596;22.520;2023-12-28T23:47:08;6.40;1.00
20400;DHT22;10359;53.596;22.520;2023-12-28T23:49:40;6.30;1.00
20400;DHT22;10359;53.596;22.520;2023-12-28T23:52:14;6.40;1.00
20400;DHT22;10359;53.596;22.520;2023-12-28T23:54:47;6.40;1.00
20400;DHT22;10359;53.596;22.520;2023-12-28T23:57:18;6.40;1.00
20400;DHT22;10359;53.596;22.520;2023-12-28T23:59:48;6.50;1.00
